sensor_id;sensor_type;location;lat;lon;timestamp;P1;durP1;ratioP1;P2;durP2;ratioP2
6269;SDS011;3168;51.684;6.954;2022-10-17T00:01:33;4.47;;;4.23;;
6269;SDS011;3168;51.684;6.954;2022-10-17T00:03:59;3.53;;;3.33;;
6269;SDS011;3168;51.684;6.954;2022-10-17T00:06:25;4.43;;;4.10;;
6269;SDS011;3168;51.684;6.954;2022-10-17T00:08:51;7.50;;;4.17;;
6269;SDS011;3168;51.684;6.954;2022-10-17T00:11:18;4.80;;;4.40;;
6269;SDS011;3168;51.684;6.954;2022-10-17T00:13:43;3.53;;;3.43;;
6269;SDS011;3168;51.684;6.954;2022-10-17T00:16:08;6.63;;;5.63;;
6269;SDS011;3168;51.684;6.954;2022-10-17T00:18:34;10.87;;;4.03;;
6269;SDS011;3168;51.684;6.954;2022-10-17T00:21:00;3.63;;;3.43;;
6269;SDS011;3168;51.684;6.954;2022-10-17T00:23:26;9.90;;;3.97;;
6269;SDS011;3168;51.684;6.954;2022-10-17T00:25:57;4.00;;;3.80;;
6269;SDS011;3168;51.684;6.954;2022-10-17T00:28:21;4.63;;;4.33;;
6269;SDS011;3168;51.684;6.954;2022-10-17T00:30:53;3.53;;;3.33;;
6269;SDS011;3168;51.684;6.954;2022-10-17T00:33:13;4.10;;;3.83;;
6269;SDS011;3168;51.684;6.954;2022-10-17T00:35:39;4.23;;;3.97;;
6269;SDS011;3168;51.684;6.954;2022-10-17T00:38:05;4.17;;;3.00;;
6269;SDS011;3168;51.684;6.954;2022-10-17T00:40:30;2.87;;;2.77;;
6269;SDS011;3168;51.684;6.954;2022-10-17T00:42:56;3.33;;;3.07;;
6269;SDS011;3168;51.684;6.954;2022-10-17T00:45:25;4.23;;;3.93;;
6269;SDS011;3168;51.684;6.954;2022-10-17T00:47:50;4.20;;;4.00;;
6269;SDS011;3168;51.684;6.954;2022-10-17T00:50:16;3.97;;;3.67;;
6269;SDS011;3168;51.684;6.954;2022-10-17T00:52:41;5.20;;;4.90;;
6269;SDS011;3168;51.684;6.954;2022-10-17T00:55:11;4.80;;;4.50;;
6269;SDS011;3168;51.684;6.954;2022-10-17T00:57:35;5.50;;;3.70;;
6269;SDS011;3168;51.684;6.954;2022-10-17T01:00:02;5.63;;;5.03;;
6269;SDS011;3168;51.684;6.954;2022-10-17T01:02:26;4.87;;;4.57;;
6269;SDS011;3168;51.684;6.954;2022-10-17T01:04:52;4.57;;;4.20;;
6269;SDS011;3168;51.684;6.954;2022-10-17T01:07:18;4.90;;;4.10;;
6269;SDS011;3168;51.684;6.954;2022-10-17T01:09:44;4.37;;;4.07;;
6269;SDS011;3168;51.684;6.954;2022-10-17T01:12:45;3.80;;;3.70;;
6269;SDS011;3168;51.684;6.954;2022-10-17T01:15:02;3.20;;;3.00;;
6269;SDS011;3168;51.684;6.954;2022-10-17T01:18:31;4.07;;;3.77;;
6269;SDS011;3168;51.684;6.954;2022-10-17T01:21:29;12.20;;;3.70;;
6269;SDS011;3168;51.684;6.954;2022-10-17T01:26:18;4.20;;;3.87;;
6269;SDS011;3168;51.684;6.954;2022-10-17T01:28:51;5.53;;;4.97;;
6269;SDS011;3168;51.684;6.954;2022-10-17T01:31:34;4.87;;;4.47;;
6269;SDS011;3168;51.684;6.954;2022-10-17T01:33:59;4.73;;;4.33;;
6269;SDS011;3168;51.684;6.954;2022-10-17T01:36:26;3.30;;;2.97;;
6269;SDS011;3168;51.684;6.954;2022-10-17T01:38:57;4.13;;;3.70;;
6269;SDS011;3168;51.684;6.954;2022-10-17T01:41:26;3.97;;;3.77;;
6269;SDS011;3168;51.684;6.954;2022-10-17T01:43:58;4.00;;;3.90;;
6269;SDS011;3168;51.684;6.954;2022-10-17T01:46:26;4.63;;;4.33;;
6269;SDS011;3168;51.684;6.954;2022-10-17T01:48:56;4.30;;;4.10;;
6269;SDS011;3168;51.684;6.954;2022-10-17T01:51:23;4.83;;;4.20;;
6269;SDS011;3168;51.684;6.954;2022-10-17T01:53:51;8.97;;;4.10;;
6269;SDS011;3168;51.684;6.954;2022-10-17T01:56:14;2.97;;;2.87;;
6269;SDS011;3168;51.684;6.954;2022-10-17T01:58:42;4.60;;;4.20;;
6269;SDS011;3168;51.684;6.954;2022-10-17T02:01:07;4.03;;;3.73;;
6269;SDS011;3168;51.684;6.954;2022-10-17T02:03:33;3.50;;;3.30;;
6269;SDS011;3168;51.684;6.954;2022-10-17T02:05:58;4.80;;;4.50;;
6269;SDS011;3168;51.684;6.954;2022-10-17T02:08:26;4.27;;;3.80;;
6269;SDS011;3168;51.684;6.954;2022-10-17T02:19:01;3.87;;;3.57;;
6269;SDS011;3168;51.684;6.954;2022-10-17T02:21:34;4.03;;;3.50;;
6269;SDS011;3168;51.684;6.954;2022-10-17T02:26:49;3.47;;;3.27;;
6269;SDS011;3168;51.684;6.954;2022-10-17T02:29:14;3.67;;;3.57;;
6269;SDS011;3168;51.684;6.954;2022-10-17T02:31:41;4.20;;;3.90;;
6269;SDS011;3168;51.684;6.954;2022-10-17T02:34:12;3.13;;;3.03;;
6269;SDS011;3168;51.684;6.954;2022-10-17T02:36:38;3.67;;;3.37;;
6269;SDS011;3168;51.684;6.954;2022-10-17T02:39:03;4.33;;;4.03;;
6269;SDS011;3168;51.684;6.954;2022-10-17T02:41:29;3.63;;;3.43;;
6269;SDS011;3168;51.684;6.954;2022-10-17T02:43:55;2.60;;;2.50;;
6269;SDS011;3168;51.684;6.954;2022-10-17T02:46:21;3.87;;;3.57;;
6269;SDS011;3168;51.684;6.954;2022-10-17T02:48:48;3.83;;;3.70;;
6269;SDS011;3168;51.684;6.954;2022-10-17T02:51:19;5.07;;;3.57;;
6269;SDS011;3168;51.684;6.954;2022-10-17T02:56:36;2.42;;;2.33;;
6269;SDS011;3168;51.684;6.954;2022-10-17T02:59:01;5.43;;;3.60;;
6269;SDS011;3168;51.684;6.954;2022-10-17T03:01:27;2.90;;;2.73;;
6269;SDS011;3168;51.684;6.954;2022-10-17T03:06:29;4.50;;;4.30;;
6269;SDS011;3168;51.684;6.954;2022-10-17T03:08:55;2.90;;;2.67;;
6269;SDS011;3168;51.684;6.954;2022-10-17T03:11:20;3.83;;;3.67;;
6269;SDS011;3168;51.684;6.954;2022-10-17T03:13:46;3.73;;;3.53;;
6269;SDS011;3168;51.684;6.954;2022-10-17T03:16:12;14.17;;;4.17;;
6269;SDS011;3168;51.684;6.954;2022-10-17T03:18:38;3.73;;;3.50;;
6269;SDS011;3168;51.684;6.954;2022-10-17T03:21:04;3.50;;;3.27;;
6269;SDS011;3168;51.684;6.954;2022-10-17T03:23:30;3.43;;;3.23;;
6269;SDS011;3168;51.684;6.954;2022-10-17T03:25:55;4.30;;;4.10;;
6269;SDS011;3168;51.684;6.954;2022-10-17T03:28:21;4.80;;;3.83;;
6269;SDS011;3168;51.684;6.954;2022-10-17T03:30:47;4.20;;;4.00;;
6269;SDS011;3168;51.684;6.954;2022-10-17T03:33:13;3.23;;;3.13;;
6269;SDS011;3168;51.684;6.954;2022-10-17T03:35:39;2.77;;;2.67;;
6269;SDS011;3168;51.684;6.954;2022-10-17T03:38:04;3.20;;;3.00;;
6269;SDS011;3168;51.684;6.954;2022-10-17T03:40:30;2.93;;;2.83;;
6269;SDS011;3168;51.684;6.954;2022-10-17T03:42:56;5.10;;;3.80;;
6269;SDS011;3168;51.684;6.954;2022-10-17T03:45:22;3.77;;;3.67;;
6269;SDS011;3168;51.684;6.954;2022-10-17T03:47:48;3.50;;;3.30;;
6269;SDS011;3168;51.684;6.954;2022-10-17T03:50:14;2.47;;;2.37;;
6269;SDS011;3168;51.684;6.954;2022-10-17T03:52:39;2.83;;;2.67;;
6269;SDS011;3168;51.684;6.954;2022-10-17T03:55:05;3.60;;;3.47;;
6269;SDS011;3168;51.684;6.954;2022-10-17T03:57:33;2.70;;;2.60;;
6269;SDS011;3168;51.684;6.954;2022-10-17T03:59:57;3.53;;;3.23;;
6269;SDS011;3168;51.684;6.954;2022-10-17T04:02:23;2.83;;;2.73;;
6269;SDS011;3168;51.684;6.954;2022-10-17T04:04:49;2.57;;;2.40;;
6269;SDS011;3168;51.684;6.954;2022-10-17T04:07:15;2.47;;;2.33;;
6269;SDS011;3168;51.684;6.954;2022-10-17T04:09:41;4.00;;;3.70;;
6269;SDS011;3168;51.684;6.954;2022-10-17T04:12:07;3.13;;;2.90;;
6269;SDS011;3168;51.684;6.954;2022-10-17T04:14:32;3.13;;;3.03;;
6269;SDS011;3168;51.684;6.954;2022-10-17T04:16:58;3.43;;;3.20;;
6269;SDS011;3168;51.684;6.954;2022-10-17T04:19:24;3.60;;;3.40;;
6269;SDS011;3168;51.684;6.954;2022-10-17T04:21:50;2.83;;;2.60;;
6269;SDS011;3168;51.684;6.954;2022-10-17T04:24:16;7.10;;;3.30;;
6269;SDS011;3168;51.684;6.954;2022-10-17T04:26:41;2.50;;;2.40;;
6269;SDS011;3168;51.684;6.954;2022-10-17T04:29:07;4.47;;;4.27;;
6269;SDS011;3168;51.684;6.954;2022-10-17T04:31:33;4.30;;;3.40;;
6269;SDS011;3168;51.684;6.954;2022-10-17T04:33:59;2.90;;;2.80;;
6269;SDS011;3168;51.684;6.954;2022-10-17T04:36:25;3.57;;;3.37;;
6269;SDS011;3168;51.684;6.954;2022-10-17T04:38:51;3.70;;;3.57;;
6269;SDS011;3168;51.684;6.954;2022-10-17T04:41:17;3.27;;;2.97;;
6269;SDS011;3168;51.684;6.954;2022-10-17T04:43:43;3.00;;;2.87;;
6269;SDS011;3168;51.684;6.954;2022-10-17T04:46:10;3.83;;;3.63;;
6269;SDS011;3168;51.684;6.954;2022-10-17T04:48:34;4.20;;;3.87;;
6269;SDS011;3168;51.684;6.954;2022-10-17T04:51:01;2.93;;;2.77;;
6269;SDS011;3168;51.684;6.954;2022-10-17T04:53:27;3.07;;;2.87;;
6269;SDS011;3168;51.684;6.954;2022-10-17T04:55:53;3.40;;;3.00;;
6269;SDS011;3168;51.684;6.954;2022-10-17T04:58:19;2.70;;;2.60;;
6269;SDS011;3168;51.684;6.954;2022-10-17T05:00:44;3.37;;;2.87;;
6269;SDS011;3168;51.684;6.954;2022-10-17T05:03:10;4.40;;;4.10;;
6269;SDS011;3168;51.684;6.954;2022-10-17T05:05:38;3.53;;;3.23;;
6269;SDS011;3168;51.684;6.954;2022-10-17T05:08:03;4.07;;;3.80;;
6269;SDS011;3168;51.684;6.954;2022-10-17T05:10:29;3.80;;;3.47;;
6269;SDS011;3168;51.684;6.954;2022-10-17T05:12:55;5.17;;;4.07;;
6269;SDS011;3168;51.684;6.954;2022-10-17T05:15:20;4.17;;;3.63;;
6269;SDS011;3168;51.684;6.954;2022-10-17T05:17:46;4.40;;;3.67;;
6269;SDS011;3168;51.684;6.954;2022-10-17T05:20:12;3.63;;;3.43;;
6269;SDS011;3168;51.684;6.954;2022-10-17T05:22:38;3.20;;;3.10;;
6269;SDS011;3168;51.684;6.954;2022-10-17T05:25:04;2.80;;;2.70;;
6269;SDS011;3168;51.684;6.954;2022-10-17T05:27:30;3.10;;;2.90;;
6269;SDS011;3168;51.684;6.954;2022-10-17T05:29:57;4.23;;;3.97;;
6269;SDS011;3168;51.684;6.954;2022-10-17T05:32:23;3.27;;;3.17;;
6269;SDS011;3168;51.684;6.954;2022-10-17T05:34:48;3.40;;;3.30;;
6269;SDS011;3168;51.684;6.954;2022-10-17T05:37:14;2.83;;;2.70;;
6269;SDS011;3168;51.684;6.954;2022-10-17T05:39:40;4.70;;;4.30;;
6269;SDS011;3168;51.684;6.954;2022-10-17T05:42:06;3.23;;;3.03;;
6269;SDS011;3168;51.684;6.954;2022-10-17T05:44:32;3.97;;;3.67;;
6269;SDS011;3168;51.684;6.954;2022-10-17T05:46:58;3.93;;;3.63;;
6269;SDS011;3168;51.684;6.954;2022-10-17T05:49:23;4.10;;;3.77;;
6269;SDS011;3168;51.684;6.954;2022-10-17T05:51:49;3.03;;;2.93;;
6269;SDS011;3168;51.684;6.954;2022-10-17T05:54:15;4.40;;;3.37;;
6269;SDS011;3168;51.684;6.954;2022-10-17T05:56:41;4.50;;;3.67;;
6269;SDS011;3168;51.684;6.954;2022-10-17T05:59:07;4.00;;;3.40;;
6269;SDS011;3168;51.684;6.954;2022-10-17T06:01:33;3.67;;;3.40;;
6269;SDS011;3168;51.684;6.954;2022-10-17T06:03:59;3.87;;;3.50;;
6269;SDS011;3168;51.684;6.954;2022-10-17T06:06:25;3.23;;;3.03;;
6269;SDS011;3168;51.684;6.954;2022-10-17T06:08:51;4.07;;;3.57;;
6269;SDS011;3168;51.684;6.954;2022-10-17T06:11:16;4.43;;;4.23;;
6269;SDS011;3168;51.684;6.954;2022-10-17T06:13:42;3.70;;;3.20;;
6269;SDS011;3168;51.684;6.954;2022-10-17T06:16:09;3.30;;;3.10;;
6269;SDS011;3168;51.684;6.954;2022-10-17T06:18:35;4.60;;;3.87;;
6269;SDS011;3168;51.684;6.954;2022-10-17T06:21:03;4.27;;;4.00;;
6269;SDS011;3168;51.684;6.954;2022-10-17T06:23:28;3.73;;;2.97;;
6269;SDS011;3168;51.684;6.954;2022-10-17T06:25:57;8.07;;;3.50;;
6269;SDS011;3168;51.684;6.954;2022-10-17T06:28:23;3.97;;;3.70;;
6269;SDS011;3168;51.684;6.954;2022-10-17T06:30:48;3.30;;;3.20;;
6269;SDS011;3168;51.684;6.954;2022-10-17T06:33:14;4.37;;;4.07;;
6269;SDS011;3168;51.684;6.954;2022-10-17T06:35:40;4.10;;;3.43;;
6269;SDS011;3168;51.684;6.954;2022-10-17T06:38:06;4.77;;;4.37;;
6269;SDS011;3168;51.684;6.954;2022-10-17T06:40:31;4.67;;;4.30;;
6269;SDS011;3168;51.684;6.954;2022-10-17T06:42:57;3.57;;;3.47;;
6269;SDS011;3168;51.684;6.954;2022-10-17T06:45:23;5.30;;;4.90;;
6269;SDS011;3168;51.684;6.954;2022-10-17T06:47:49;4.73;;;4.30;;
6269;SDS011;3168;51.684;6.954;2022-10-17T06:50:15;4.10;;;3.17;;
6269;SDS011;3168;51.684;6.954;2022-10-17T06:52:41;3.40;;;3.20;;
6269;SDS011;3168;51.684;6.954;2022-10-17T06:55:07;4.70;;;4.40;;
6269;SDS011;3168;51.684;6.954;2022-10-17T06:57:33;5.40;;;4.85;;
6269;SDS011;3168;51.684;6.954;2022-10-17T06:59:59;5.17;;;4.87;;
6269;SDS011;3168;51.684;6.954;2022-10-17T07:02:25;4.70;;;4.13;;
6269;SDS011;3168;51.684;6.954;2022-10-17T07:04:50;4.53;;;4.23;;
6269;SDS011;3168;51.684;6.954;2022-10-17T07:07:16;6.53;;;4.80;;
6269;SDS011;3168;51.684;6.954;2022-10-17T07:09:42;5.53;;;4.70;;
6269;SDS011;3168;51.684;6.954;2022-10-17T07:12:08;5.10;;;4.70;;
6269;SDS011;3168;51.684;6.954;2022-10-17T07:14:34;5.33;;;4.83;;
6269;SDS011;3168;51.684;6.954;2022-10-17T07:17:00;4.77;;;4.40;;
6269;SDS011;3168;51.684;6.954;2022-10-17T07:19:25;5.77;;;5.37;;
6269;SDS011;3168;51.684;6.954;2022-10-17T07:21:52;4.83;;;4.43;;
6269;SDS011;3168;51.684;6.954;2022-10-17T07:24:17;5.17;;;4.73;;
6269;SDS011;3168;51.684;6.954;2022-10-17T07:26:43;9.27;;;5.07;;
6269;SDS011;3168;51.684;6.954;2022-10-17T07:29:09;15.20;;;5.27;;
6269;SDS011;3168;51.684;6.954;2022-10-17T07:31:35;4.27;;;3.97;;
6269;SDS011;3168;51.684;6.954;2022-10-17T07:34:00;7.03;;;5.17;;
6269;SDS011;3168;51.684;6.954;2022-10-17T07:36:26;9.90;;;4.37;;
6269;SDS011;3168;51.684;6.954;2022-10-17T07:38:52;5.43;;;4.93;;
6269;SDS011;3168;51.684;6.954;2022-10-17T07:41:18;6.07;;;4.70;;
6269;SDS011;3168;51.684;6.954;2022-10-17T07:43:44;6.77;;;6.23;;
6269;SDS011;3168;51.684;6.954;2022-10-17T07:46:10;5.93;;;5.43;;
6269;SDS011;3168;51.684;6.954;2022-10-17T07:48:36;5.30;;;4.80;;
6269;SDS011;3168;51.684;6.954;2022-10-17T07:51:02;7.67;;;6.33;;
6269;SDS011;3168;51.684;6.954;2022-10-17T07:53:27;9.13;;;5.97;;
6269;SDS011;3168;51.684;6.954;2022-10-17T07:55:53;5.93;;;5.30;;
6269;SDS011;3168;51.684;6.954;2022-10-17T07:58:19;6.32;;;5.32;;
6269;SDS011;3168;51.684;6.954;2022-10-17T08:00:45;5.70;;;5.30;;
6269;SDS011;3168;51.684;6.954;2022-10-17T08:03:11;5.23;;;4.83;;
6269;SDS011;3168;51.684;6.954;2022-10-17T08:05:37;5.23;;;4.70;;
6269;SDS011;3168;51.684;6.954;2022-10-17T08:08:04;5.30;;;4.97;;
6269;SDS011;3168;51.684;6.954;2022-10-17T08:10:30;4.70;;;4.30;;
6269;SDS011;3168;51.684;6.954;2022-10-17T08:12:56;6.33;;;5.80;;
6269;SDS011;3168;51.684;6.954;2022-10-17T08:15:22;12.10;;;5.23;;
6269;SDS011;3168;51.684;6.954;2022-10-17T08:17:49;4.83;;;4.50;;
6269;SDS011;3168;51.684;6.954;2022-10-17T08:20:20;8.57;;;4.47;;
6269;SDS011;3168;51.684;6.954;2022-10-17T08:22:51;7.33;;;4.23;;
6269;SDS011;3168;51.684;6.954;2022-10-17T08:27:56;11.80;;;5.23;;
6269;SDS011;3168;51.684;6.954;2022-10-17T08:30:34;6.80;;;3.53;;
6269;SDS011;3168;51.684;6.954;2022-10-17T08:33:01;5.67;;;5.20;;
6269;SDS011;3168;51.684;6.954;2022-10-17T08:35:33;4.13;;;3.93;;
6269;SDS011;3168;51.684;6.954;2022-10-17T08:38:02;3.43;;;3.20;;
6269;SDS011;3168;51.684;6.954;2022-10-17T08:40:29;5.03;;;3.97;;
6269;SDS011;3168;51.684;6.954;2022-10-17T08:43:06;3.60;;;3.40;;
6269;SDS011;3168;51.684;6.954;2022-10-17T08:45:35;2.43;;;2.33;;
6269;SDS011;3168;51.684;6.954;2022-10-17T08:48:01;2.83;;;2.63;;
6269;SDS011;3168;51.684;6.954;2022-10-17T08:51:02;3.10;;;2.90;;
6269;SDS011;3168;51.684;6.954;2022-10-17T08:53:33;2.97;;;2.77;;
6269;SDS011;3168;51.684;6.954;2022-10-17T08:55:58;3.27;;;3.03;;
6269;SDS011;3168;51.684;6.954;2022-10-17T08:58:26;2.40;;;2.37;;
6269;SDS011;3168;51.684;6.954;2022-10-17T09:00:55;2.40;;;2.30;;
6269;SDS011;3168;51.684;6.954;2022-10-17T09:04:35;3.77;;;3.00;;
6269;SDS011;3168;51.684;6.954;2022-10-17T09:06:11;2.97;;;2.77;;
6269;SDS011;3168;51.684;6.954;2022-10-17T09:08:46;2.93;;;2.67;;
6269;SDS011;3168;51.684;6.954;2022-10-17T09:11:15;2.07;;;1.97;;
6269;SDS011;3168;51.684;6.954;2022-10-17T09:13:51;2.77;;;2.53;;
6269;SDS011;3168;51.684;6.954;2022-10-17T09:16:48;6.63;;;2.90;;
6269;SDS011;3168;51.684;6.954;2022-10-17T09:18:59;2.07;;;2.07;;
6269;SDS011;3168;51.684;6.954;2022-10-17T09:21:32;2.80;;;2.60;;
6269;SDS011;3168;51.684;6.954;2022-10-17T09:24:03;6.83;;;2.77;;
6269;SDS011;3168;51.684;6.954;2022-10-17T09:26:29;5.90;;;2.70;;
6269;SDS011;3168;51.684;6.954;2022-10-17T09:28:55;5.53;;;3.00;;
6269;SDS011;3168;51.684;6.954;2022-10-17T09:31:22;2.33;;;2.20;;
6269;SDS011;3168;51.684;6.954;2022-10-17T09:33:49;4.30;;;2.33;;
6269;SDS011;3168;51.684;6.954;2022-10-17T09:36:16;2.67;;;2.47;;
6269;SDS011;3168;51.684;6.954;2022-10-17T09:38:42;2.40;;;2.30;;
6269;SDS011;3168;51.684;6.954;2022-10-17T09:41:12;2.20;;;2.10;;
6269;SDS011;3168;51.684;6.954;2022-10-17T09:43:38;1.97;;;1.97;;
6269;SDS011;3168;51.684;6.954;2022-10-17T09:46:06;2.13;;;2.03;;
6269;SDS011;3168;51.684;6.954;2022-10-17T09:48:34;2.30;;;2.20;;
6269;SDS011;3168;51.684;6.954;2022-10-17T09:50:58;2.00;;;2.00;;
6269;SDS011;3168;51.684;6.954;2022-10-17T09:53:27;3.10;;;3.00;;
6269;SDS011;3168;51.684;6.954;2022-10-17T09:55:53;11.27;;;2.63;;
6269;SDS011;3168;51.684;6.954;2022-10-17T09:58:18;2.70;;;2.27;;
6269;SDS011;3168;51.684;6.954;2022-10-17T10:00:44;2.60;;;2.50;;
6269;SDS011;3168;51.684;6.954;2022-10-17T10:03:19;2.70;;;2.50;;
6269;SDS011;3168;51.684;6.954;2022-10-17T10:08:22;2.13;;;2.03;;
6269;SDS011;3168;51.684;6.954;2022-10-17T10:10:48;2.57;;;2.37;;
6269;SDS011;3168;51.684;6.954;2022-10-17T10:13:16;2.77;;;2.67;;
6269;SDS011;3168;51.684;6.954;2022-10-17T10:15:41;3.37;;;2.13;;
6269;SDS011;3168;51.684;6.954;2022-10-17T10:20:45;2.67;;;2.57;;
6269;SDS011;3168;51.684;6.954;2022-10-17T10:23:14;1.93;;;1.93;;
6269;SDS011;3168;51.684;6.954;2022-10-17T10:28:13;6.07;;;3.17;;
6269;SDS011;3168;51.684;6.954;2022-10-17T10:30:38;3.00;;;2.80;;
6269;SDS011;3168;51.684;6.954;2022-10-17T10:33:04;1.73;;;1.63;;
6269;SDS011;3168;51.684;6.954;2022-10-17T10:35:31;2.13;;;2.03;;
6269;SDS011;3168;51.684;6.954;2022-10-17T10:37:56;2.87;;;2.67;;
6269;SDS011;3168;51.684;6.954;2022-10-17T10:40:30;2.00;;;1.90;;
6269;SDS011;3168;51.684;6.954;2022-10-17T10:42:54;2.00;;;1.90;;
6269;SDS011;3168;51.684;6.954;2022-10-17T10:45:21;4.87;;;3.30;;
6269;SDS011;3168;51.684;6.954;2022-10-17T10:47:52;2.30;;;2.20;;
6269;SDS011;3168;51.684;6.954;2022-10-17T10:50:23;2.43;;;2.33;;
6269;SDS011;3168;51.684;6.954;2022-10-17T10:52:52;4.27;;;2.93;;
6269;SDS011;3168;51.684;6.954;2022-10-17T10:57:56;2.03;;;1.93;;
6269;SDS011;3168;51.684;6.954;2022-10-17T11:00:21;6.27;;;2.60;;
6269;SDS011;3168;51.684;6.954;2022-10-17T11:02:49;2.75;;;2.65;;
6269;SDS011;3168;51.684;6.954;2022-10-17T11:05:18;2.53;;;2.43;;
6269;SDS011;3168;51.684;6.954;2022-10-17T11:07:45;4.53;;;2.67;;
6269;SDS011;3168;51.684;6.954;2022-10-17T11:10:16;2.33;;;2.23;;
6269;SDS011;3168;51.684;6.954;2022-10-17T11:12:49;3.17;;;3.00;;
6269;SDS011;3168;51.684;6.954;2022-10-17T11:15:19;3.27;;;3.17;;
6269;SDS011;3168;51.684;6.954;2022-10-17T11:18:06;6.20;;;2.73;;
6269;SDS011;3168;51.684;6.954;2022-10-17T11:20:35;3.23;;;3.13;;
6269;SDS011;3168;51.684;6.954;2022-10-17T11:23:29;2.17;;;2.07;;
6269;SDS011;3168;51.684;6.954;2022-10-17T11:25:56;11.60;;;3.57;;
6269;SDS011;3168;51.684;6.954;2022-10-17T11:28:21;3.37;;;3.17;;
6269;SDS011;3168;51.684;6.954;2022-10-17T11:33:24;3.27;;;3.07;;
6269;SDS011;3168;51.684;6.954;2022-10-17T11:35:49;3.70;;;3.40;;
6269;SDS011;3168;51.684;6.954;2022-10-17T11:38:55;2.87;;;2.73;;
6269;SDS011;3168;51.684;6.954;2022-10-17T11:41:02;3.77;;;3.37;;
6269;SDS011;3168;51.684;6.954;2022-10-17T11:43:32;3.33;;;3.13;;
6269;SDS011;3168;51.684;6.954;2022-10-17T11:46:00;3.73;;;3.53;;
6269;SDS011;3168;51.684;6.954;2022-10-17T11:48:27;11.23;;;3.87;;
6269;SDS011;3168;51.684;6.954;2022-10-17T11:50:55;3.50;;;3.30;;
6269;SDS011;3168;51.684;6.954;2022-10-17T11:53:19;3.43;;;2.57;;
6269;SDS011;3168;51.684;6.954;2022-10-17T11:55:44;9.50;;;6.00;;
6269;SDS011;3168;51.684;6.954;2022-10-17T12:00:59;3.47;;;3.27;;
6269;SDS011;3168;51.684;6.954;2022-10-17T12:04:15;3.37;;;3.13;;
6269;SDS011;3168;51.684;6.954;2022-10-17T12:09:29;8.13;;;4.60;;
6269;SDS011;3168;51.684;6.954;2022-10-17T12:11:56;5.80;;;4.77;;
6269;SDS011;3168;51.684;6.954;2022-10-17T12:19:49;3.73;;;3.53;;
6269;SDS011;3168;51.684;6.954;2022-10-17T12:22:19;3.60;;;3.40;;
6269;SDS011;3168;51.684;6.954;2022-10-17T12:24:53;4.50;;;4.23;;
6269;SDS011;3168;51.684;6.954;2022-10-17T12:30:02;4.03;;;3.83;;
6269;SDS011;3168;51.684;6.954;2022-10-17T12:32:26;4.03;;;3.83;;
6269;SDS011;3168;51.684;6.954;2022-10-17T12:34:52;4.50;;;4.10;;
6269;SDS011;3168;51.684;6.954;2022-10-17T12:39:56;4.30;;;4.00;;
6269;SDS011;3168;51.684;6.954;2022-10-17T12:42:31;5.00;;;4.50;;
6269;SDS011;3168;51.684;6.954;2022-10-17T12:44:57;3.83;;;3.53;;
6269;SDS011;3168;51.684;6.954;2022-10-17T12:47:28;3.53;;;3.40;;
6269;SDS011;3168;51.684;6.954;2022-10-17T12:49:53;7.10;;;3.53;;
6269;SDS011;3168;51.684;6.954;2022-10-17T12:52:21;3.03;;;2.93;;
6269;SDS011;3168;51.684;6.954;2022-10-17T12:54:55;6.57;;;5.20;;
6269;SDS011;3168;51.684;6.954;2022-10-17T12:57:33;3.53;;;3.43;;
6269;SDS011;3168;51.684;6.954;2022-10-17T12:59:52;4.87;;;4.47;;
6269;SDS011;3168;51.684;6.954;2022-10-17T13:02:20;3.53;;;2.73;;
6269;SDS011;3168;51.684;6.954;2022-10-17T13:04:44;4.67;;;2.97;;
6269;SDS011;3168;51.684;6.954;2022-10-17T13:07:12;4.87;;;4.50;;
6269;SDS011;3168;51.684;6.954;2022-10-17T13:09:36;3.20;;;3.10;;
6269;SDS011;3168;51.684;6.954;2022-10-17T13:12:03;3.33;;;3.13;;
6269;SDS011;3168;51.684;6.954;2022-10-17T13:14:27;4.00;;;3.60;;
6269;SDS011;3168;51.684;6.954;2022-10-17T13:16:55;3.67;;;3.37;;
6269;SDS011;3168;51.684;6.954;2022-10-17T13:19:23;5.63;;;3.97;;
6269;SDS011;3168;51.684;6.954;2022-10-17T13:21:52;3.60;;;3.40;;
6269;SDS011;3168;51.684;6.954;2022-10-17T13:24:18;4.47;;;4.10;;
6269;SDS011;3168;51.684;6.954;2022-10-17T13:26:45;3.30;;;3.03;;
6269;SDS011;3168;51.684;6.954;2022-10-17T13:29:12;6.30;;;3.47;;
6269;SDS011;3168;51.684;6.954;2022-10-17T13:31:38;5.83;;;3.80;;
6269;SDS011;3168;51.684;6.954;2022-10-17T13:34:04;3.30;;;3.20;;
6269;SDS011;3168;51.684;6.954;2022-10-17T13:36:29;2.27;;;2.17;;
6269;SDS011;3168;51.684;6.954;2022-10-17T13:38:56;2.60;;;2.40;;
6269;SDS011;3168;51.684;6.954;2022-10-17T13:41:23;2.77;;;2.67;;
6269;SDS011;3168;51.684;6.954;2022-10-17T13:43:46;2.63;;;2.43;;
6269;SDS011;3168;51.684;6.954;2022-10-17T13:46:18;8.60;;;2.13;;
6269;SDS011;3168;51.684;6.954;2022-10-17T13:48:41;3.23;;;2.80;;
6269;SDS011;3168;51.684;6.954;2022-10-17T13:51:07;2.83;;;1.73;;
6269;SDS011;3168;51.684;6.954;2022-10-17T13:53:34;2.87;;;2.67;;
6269;SDS011;3168;51.684;6.954;2022-10-17T13:56:02;2.57;;;2.20;;
6269;SDS011;3168;51.684;6.954;2022-10-17T13:58:31;3.37;;;2.77;;
6269;SDS011;3168;51.684;6.954;2022-10-17T14:00:56;2.40;;;2.30;;
6269;SDS011;3168;51.684;6.954;2022-10-17T14:03:22;15.93;;;2.23;;
6269;SDS011;3168;51.684;6.954;2022-10-17T14:08:25;3.22;;;2.20;;
6269;SDS011;3168;51.684;6.954;2022-10-17T14:10:51;2.87;;;2.77;;
6269;SDS011;3168;51.684;6.954;2022-10-17T14:13:19;2.37;;;2.20;;
6269;SDS011;3168;51.684;6.954;2022-10-17T14:15:44;2.47;;;2.27;;
6269;SDS011;3168;51.684;6.954;2022-10-17T14:18:13;2.20;;;2.10;;
6269;SDS011;3168;51.684;6.954;2022-10-17T14:20:38;3.87;;;2.30;;
6269;SDS011;3168;51.684;6.954;2022-10-17T14:23:03;2.47;;;2.37;;
6269;SDS011;3168;51.684;6.954;2022-10-17T14:25:30;4.60;;;2.87;;
6269;SDS011;3168;51.684;6.954;2022-10-17T14:28:11;2.90;;;2.73;;
6269;SDS011;3168;51.684;6.954;2022-10-17T14:30:30;2.20;;;2.10;;
6269;SDS011;3168;51.684;6.954;2022-10-17T14:32:55;5.03;;;2.30;;
6269;SDS011;3168;51.684;6.954;2022-10-17T14:35:20;2.90;;;2.70;;
6269;SDS011;3168;51.684;6.954;2022-10-17T14:37:47;3.00;;;2.90;;
6269;SDS011;3168;51.684;6.954;2022-10-17T14:40:14;2.97;;;2.77;;
6269;SDS011;3168;51.684;6.954;2022-10-17T14:42:40;2.60;;;2.50;;
6269;SDS011;3168;51.684;6.954;2022-10-17T14:45:07;2.43;;;2.33;;
6269;SDS011;3168;51.684;6.954;2022-10-17T14:47:33;5.70;;;2.57;;
6269;SDS011;3168;51.684;6.954;2022-10-17T14:50:05;5.27;;;2.37;;
6269;SDS011;3168;51.684;6.954;2022-10-17T14:52:30;3.13;;;2.67;;
6269;SDS011;3168;51.684;6.954;2022-10-17T14:54:56;2.47;;;2.37;;
6269;SDS011;3168;51.684;6.954;2022-10-17T14:57:27;3.63;;;3.10;;
6269;SDS011;3168;51.684;6.954;2022-10-17T14:59:54;5.73;;;2.50;;
6269;SDS011;3168;51.684;6.954;2022-10-17T15:02:19;2.77;;;2.50;;
6269;SDS011;3168;51.684;6.954;2022-10-17T15:04:45;17.83;;;3.53;;
6269;SDS011;3168;51.684;6.954;2022-10-17T15:07:12;4.00;;;2.40;;
6269;SDS011;3168;51.684;6.954;2022-10-17T15:09:38;5.30;;;2.12;;
6269;SDS011;3168;51.684;6.954;2022-10-17T15:12:06;4.80;;;2.67;;
6269;SDS011;3168;51.684;6.954;2022-10-17T15:14:30;2.97;;;2.47;;
6269;SDS011;3168;51.684;6.954;2022-10-17T15:16:56;2.50;;;2.40;;
6269;SDS011;3168;51.684;6.954;2022-10-17T15:19:22;2.57;;;2.47;;
6269;SDS011;3168;51.684;6.954;2022-10-17T15:21:48;2.50;;;2.30;;
6269;SDS011;3168;51.684;6.954;2022-10-17T15:24:13;3.27;;;3.10;;
6269;SDS011;3168;51.684;6.954;2022-10-17T15:26:39;3.13;;;3.03;;
6269;SDS011;3168;51.684;6.954;2022-10-17T15:29:05;3.87;;;2.50;;
6269;SDS011;3168;51.684;6.954;2022-10-17T15:31:31;3.30;;;3.10;;
6269;SDS011;3168;51.684;6.954;2022-10-17T15:33:57;2.40;;;2.30;;
6269;SDS011;3168;51.684;6.954;2022-10-17T15:36:28;9.03;;;3.47;;
6269;SDS011;3168;51.684;6.954;2022-10-17T15:38:55;4.63;;;2.43;;
6269;SDS011;3168;51.684;6.954;2022-10-17T15:41:21;2.80;;;2.70;;
6269;SDS011;3168;51.684;6.954;2022-10-17T15:43:46;4.33;;;3.90;;
6269;SDS011;3168;51.684;6.954;2022-10-17T15:46:16;2.73;;;2.63;;
6269;SDS011;3168;51.684;6.954;2022-10-17T15:48:39;2.77;;;2.50;;
6269;SDS011;3168;51.684;6.954;2022-10-17T15:51:05;2.20;;;2.10;;
6269;SDS011;3168;51.684;6.954;2022-10-17T15:53:31;3.27;;;3.17;;
6269;SDS011;3168;51.684;6.954;2022-10-17T15:55:57;3.90;;;3.50;;
6269;SDS011;3168;51.684;6.954;2022-10-17T15:58:23;3.00;;;2.77;;
6269;SDS011;3168;51.684;6.954;2022-10-17T16:00:49;15.20;;;3.67;;
6269;SDS011;3168;51.684;6.954;2022-10-17T16:03:15;3.33;;;3.03;;
6269;SDS011;3168;51.684;6.954;2022-10-17T16:05:40;4.23;;;3.83;;
6269;SDS011;3168;51.684;6.954;2022-10-17T16:08:06;2.77;;;2.67;;
6269;SDS011;3168;51.684;6.954;2022-10-17T16:10:33;2.80;;;2.60;;